createdAt,value
2022-10-20T00:02:15.356Z,7.56
2022-10-20T00:07:23.070Z,6.85
2022-10-20T00:12:29.435Z,6.88
2022-10-20T00:17:35.761Z,9.78
2022-10-20T00:22:42.052Z,6.96
2022-10-20T00:27:48.316Z,6.78
2022-10-20T00:32:54.602Z,6.81
2022-10-20T00:38:00.883Z,9.87
2022-10-20T00:43:08.785Z,6.42
2022-10-20T00:48:14.960Z,9.47
2022-10-20T00:53:21.158Z,9.37
2022-10-20T00:58:27.363Z,5.88
2022-10-20T01:03:33.568Z,5.72
2022-10-20T01:08:39.792Z,5.41
2022-10-20T01:13:46.111Z,5.53
2022-10-20T01:18:52.375Z,5.77
2022-10-20T01:23:59.891Z,8.54
2022-10-20T01:29:05.133Z,5.53
2022-10-20T01:34:11.429Z,8.02
2022-10-20T01:39:17.684Z,7.99
2022-10-20T01:44:23.957Z,5.42
2022-10-20T01:49:31.554Z,5.65
2022-10-20T01:54:36.797Z,7.82
2022-10-20T01:59:58.678Z,4.97
2022-10-20T02:04:44.899Z,4.99
2022-10-20T02:09:51.209Z,4.77
2022-10-20T02:14:57.509Z,4.93
2022-10-20T02:20:03.754Z,7.24
2022-10-20T02:25:09.941Z,5.07
2022-10-20T02:30:16.264Z,4.86
2022-10-20T02:35:22.755Z,4.94
2022-10-20T02:40:29.015Z,4.82
2022-10-20T02:45:35.186Z,7.16
2022-10-20T02:50:41.443Z,4.68
2022-10-20T02:55:47.710Z,4.55
2022-10-20T03:00:53.904Z,4.75
2022-10-20T03:06:00.133Z,4.95
2022-10-20T03:11:06.493Z,4.62
2022-10-20T03:16:12.808Z,4.73
2022-10-20T03:21:19.055Z,7.05
2022-10-20T03:26:25.406Z,4.33
2022-10-20T03:31:31.783Z,4.45
2022-10-20T03:36:38.059Z,4.10
2022-10-20T03:41:44.334Z,3.72
2022-10-20T03:46:50.520Z,5.77
2022-10-20T03:51:57.876Z,5.23
2022-10-20T03:57:07.030Z,3.51
2022-10-20T04:02:10.155Z,3.34
2022-10-20T04:07:16.461Z,3.22
2022-10-20T04:12:22.913Z,4.86
2022-10-20T04:17:29.236Z,3.12
2022-10-20T04:22:35.729Z,3.02
2022-10-20T04:27:41.731Z,3.15
2022-10-20T04:32:48.068Z,2.95
2022-10-20T04:37:55.413Z,4.41
2022-10-20T04:43:04.063Z,3.41
2022-10-20T04:48:11.443Z,3.03
2022-10-20T04:53:17.765Z,4.64
2022-10-20T04:58:23.979Z,3.21
2022-10-20T05:03:30.240Z,3.01
2022-10-20T05:08:36.540Z,3.21
2022-10-20T05:13:42.754Z,4.13
2022-10-20T05:18:48.919Z,4.71
2022-10-20T05:23:55.181Z,3.40
2022-10-20T05:29:01.548Z,3.74
2022-10-20T05:34:08.303Z,3.47
2022-10-20T05:39:14.642Z,5.34
2022-10-20T05:44:20.872Z,3.40
2022-10-20T05:49:27.106Z,4.88
2022-10-20T05:54:33.380Z,4.49
2022-10-20T05:59:39.600Z,3.48
2022-10-20T06:04:45.920Z,3.69
2022-10-20T06:09:54.364Z,5.42
2022-10-20T06:15:00.671Z,3.71
2022-10-20T06:20:06.973Z,3.79
2022-10-20T06:25:13.310Z,4.02
2022-10-20T06:30:19.617Z,3.85
2022-10-20T06:35:25.999Z,4.03
2022-10-20T06:40:32.258Z,4.15
2022-10-20T06:45:38.539Z,3.83
2022-10-20T06:50:44.775Z,5.80
2022-10-20T06:55:51.091Z,3.80
2022-10-20T07:00:58.151Z,5.65
2022-10-20T07:06:04.396Z,4.25
2022-10-20T07:11:10.598Z,6.16
2022-10-20T07:16:16.810Z,3.88
2022-10-20T07:21:23.028Z,3.70
2022-10-20T07:26:29.313Z,5.73
2022-10-20T07:31:35.652Z,5.54
2022-10-20T07:36:41.954Z,3.96
2022-10-20T07:41:48.560Z,3.84
2022-10-20T07:46:54.564Z,3.56
2022-10-20T07:52:00.893Z,3.58
2022-10-20T07:57:08.020Z,3.79
2022-10-20T08:02:14.329Z,3.39
2022-10-20T08:07:20.612Z,3.69
2022-10-20T08:12:26.952Z,5.56
2022-10-20T08:17:33.770Z,3.60
2022-10-20T08:22:40.206Z,3.95
2022-10-20T08:27:46.509Z,4.14
2022-10-20T08:32:52.844Z,3.83
2022-10-20T08:37:59.269Z,3.93
2022-10-20T08:43:05.486Z,4.16
2022-10-20T08:48:11.825Z,4.24
2022-10-20T08:53:18.227Z,4.01
2022-10-20T08:58:24.554Z,4.26
2022-10-20T09:03:30.841Z,4.24
2022-10-20T09:08:37.174Z,4.03
2022-10-20T09:13:43.585Z,4.17
2022-10-20T09:18:49.842Z,6.10
2022-10-20T09:23:56.112Z,4.13
2022-10-20T09:29:16.082Z,4.20
2022-10-20T09:34:11.388Z,6.42
2022-10-20T09:39:17.724Z,4.50
2022-10-20T09:44:23.954Z,7.08
2022-10-20T09:49:30.314Z,4.02
2022-10-20T09:54:36.633Z,4.15
2022-10-20T09:59:42.921Z,4.44
2022-10-20T10:04:49.270Z,4.56
2022-10-20T10:09:55.647Z,4.88
2022-10-20T10:15:03.058Z,5.43
2022-10-20T10:20:09.333Z,4.79
2022-10-20T10:25:15.579Z,4.66
2022-10-20T10:30:22.071Z,4.68
2022-10-20T10:35:28.325Z,4.63
2022-10-20T10:40:34.711Z,5.22
2022-10-20T10:45:41.097Z,5.32
2022-10-20T10:50:47.370Z,5.28
2022-10-20T10:55:53.808Z,5.50
2022-10-20T11:01:00.317Z,5.44
2022-10-20T11:06:06.587Z,8.77
2022-10-20T11:11:13.898Z,5.71
2022-10-20T11:16:20.173Z,9.54
2022-10-20T11:21:31.031Z,6.22
2022-10-20T11:26:29.101Z,6.18
2022-10-20T11:31:33.265Z,6.22
2022-10-20T11:36:39.601Z,6.53
2022-10-20T11:41:49.869Z,6.22
2022-10-20T11:46:46.819Z,6.90
2022-10-20T11:51:53.119Z,10.68
2022-10-20T11:56:59.368Z,7.22
2022-10-20T12:02:08.817Z,6.76
2022-10-20T12:07:15.057Z,7.75
2022-10-20T12:12:21.532Z,11.95
2022-10-20T12:17:27.811Z,12.02
2022-10-20T12:22:36.356Z,8.28
2022-10-20T12:27:41.385Z,8.46
2022-10-20T12:32:47.674Z,8.22
2022-10-20T12:37:54.137Z,12.43
2022-10-20T12:43:01.774Z,9.23
2022-10-20T12:48:09.303Z,10.32
2022-10-20T12:53:15.630Z,15.82
2022-10-20T12:58:21.948Z,10.63
2022-10-20T13:03:28.223Z,10.55
2022-10-20T13:08:34.688Z,10.32
2022-10-20T13:13:41.027Z,10.16
2022-10-20T13:18:47.308Z,14.27
2022-10-20T13:23:53.565Z,9.89
2022-10-20T13:28:59.881Z,9.97
2022-10-20T13:34:06.617Z,15.51
2022-10-20T13:39:12.134Z,10.93
2022-10-20T13:44:21.586Z,15.56
2022-10-20T13:49:24.339Z,10.23
2022-10-20T13:54:30.601Z,10.33
2022-10-20T13:59:38.615Z,13.90
2022-10-20T14:04:42.779Z,13.62
2022-10-20T14:09:51.434Z,9.79
2022-10-20T14:14:59.265Z,9.54
2022-10-20T14:20:01.201Z,9.62
2022-10-20T14:25:07.626Z,9.47
2022-10-20T14:30:13.898Z,10.07
2022-10-20T14:35:20.186Z,9.57
2022-10-20T14:40:26.463Z,9.59
2022-10-20T14:50:38.506Z,9.86
2022-10-20T14:55:44.828Z,9.75
2022-10-20T15:00:51.206Z,10.35
2022-10-20T15:05:57.516Z,11.67
2022-10-20T15:11:03.875Z,10.37
2022-10-20T15:16:10.182Z,10.58
2022-10-20T15:21:16.576Z,11.08
2022-10-20T15:26:22.977Z,11.22
2022-10-20T15:31:29.403Z,11.89
2022-10-20T15:36:39.083Z,11.87
2022-10-20T15:41:42.794Z,10.93
2022-10-20T15:46:49.094Z,11.03
2022-10-20T15:51:55.915Z,11.66
2022-10-20T15:57:02.291Z,16.48
2022-10-20T16:02:09.869Z,10.81
2022-10-20T16:07:17.489Z,11.51
2022-10-20T16:12:24.854Z,11.41
2022-10-20T16:17:31.205Z,11.20
2022-10-20T16:22:37.816Z,11.66
2022-10-20T16:27:43.403Z,11.64
2022-10-20T16:32:49.693Z,17.27
2022-10-20T16:37:55.973Z,11.88
2022-10-20T16:43:02.261Z,18.37
2022-10-20T16:48:08.629Z,12.50
2022-10-20T16:53:14.953Z,17.73
2022-10-20T16:58:21.235Z,14.04
2022-10-20T17:03:27.484Z,12.61
2022-10-20T17:08:33.807Z,18.67
2022-10-20T17:13:40.000Z,19.82
2022-10-20T17:18:46.306Z,12.34
2022-10-20T17:23:54.452Z,12.52
2022-10-20T17:28:59.295Z,12.02
2022-10-20T17:34:05.502Z,11.76
2022-10-20T17:39:11.736Z,18.22
2022-10-20T17:44:18.036Z,12.27
2022-10-20T17:49:27.493Z,12.49
2022-10-20T17:54:33.944Z,12.43
2022-10-20T17:59:52.426Z,12.29
2022-10-20T18:04:47.256Z,12.39
2022-10-20T18:10:00.620Z,12.32
2022-10-20T18:14:55.840Z,18.42
2022-10-20T18:20:02.098Z,12.08
2022-10-20T18:25:08.324Z,12.41
2022-10-20T18:30:14.524Z,12.17
2022-10-20T18:35:20.762Z,18.00
2022-10-20T18:40:27.086Z,12.13
2022-10-20T18:45:33.342Z,18.08
2022-10-20T18:50:39.644Z,13.21
2022-10-20T18:55:45.920Z,13.02
2022-10-20T19:00:52.409Z,13.55
2022-10-20T19:06:00.327Z,15.11
2022-10-20T19:11:07.800Z,13.69
2022-10-20T19:16:15.965Z,13.32
2022-10-20T19:21:23.611Z,21.89
2022-10-20T19:26:29.608Z,13.94
2022-10-20T19:31:36.236Z,13.53
2022-10-20T19:36:42.754Z,14.95
2022-10-20T19:41:49.074Z,13.70
2022-10-20T19:46:55.388Z,13.15
2022-10-20T19:52:01.685Z,13.80
2022-10-20T19:57:07.967Z,13.87
2022-10-20T20:02:14.229Z,14.39
2022-10-20T20:07:20.559Z,21.08
2022-10-20T20:12:26.797Z,14.22
2022-10-20T20:22:48.437Z,13.66
2022-10-20T20:27:57.683Z,13.96
2022-10-20T20:33:01.460Z,13.87
2022-10-20T20:38:04.499Z,13.03
2022-10-20T20:43:04.391Z,20.66
2022-10-20T20:48:20.793Z,20.36
2022-10-20T20:53:17.269Z,13.83
2022-10-20T20:58:26.443Z,13.99
2022-10-20T21:03:34.064Z,14.35
2022-10-20T21:08:41.581Z,14.08
2022-10-20T21:13:52.123Z,19.87
2022-10-20T21:18:48.738Z,13.87
2022-10-20T21:23:56.489Z,20.19
2022-10-20T21:29:03.743Z,13.83
2022-10-20T21:34:13.067Z,13.45
2022-10-20T21:39:26.138Z,13.20
2022-10-20T21:44:28.073Z,19.38
2022-10-20T21:49:24.752Z,19.46
2022-10-20T21:54:32.788Z,13.34
2022-10-20T21:59:43.222Z,13.08
2022-10-20T22:04:51.297Z,13.18
2022-10-20T22:09:57.644Z,12.79
2022-10-20T22:15:03.887Z,12.32
2022-10-20T22:20:10.304Z,11.97
2022-10-20T22:25:16.578Z,12.08
2022-10-20T22:30:22.887Z,17.34
2022-10-20T22:35:29.181Z,17.35
2022-10-20T22:40:36.511Z,11.37
2022-10-20T22:45:42.758Z,10.96
2022-10-20T22:50:49.021Z,10.61
2022-10-20T22:55:55.194Z,16.70
2022-10-20T23:01:01.519Z,11.22
2022-10-20T23:06:07.686Z,11.62
2022-10-20T23:11:13.925Z,11.63
2022-10-20T23:16:20.330Z,12.12
2022-10-20T23:21:26.518Z,12.42
2022-10-20T23:26:32.707Z,11.32
2022-10-20T23:31:39.034Z,16.43
2022-10-20T23:36:45.372Z,10.70
2022-10-20T23:41:51.550Z,14.35
2022-10-20T23:46:57.892Z,10.15
2022-10-20T23:52:04.175Z,9.04
2022-10-20T23:57:10.467Z,14.05
